createdAt,value
2017-09-03T00:01:02.767Z,81.20
2017-09-03T00:03:29.041Z,80.80
2017-09-03T00:05:55.306Z,80.30
2017-09-03T00:08:21.574Z,80.40
2017-09-03T00:10:47.892Z,80.00
2017-09-03T00:13:14.182Z,80.00
2017-09-03T00:15:40.490Z,80.20
2017-09-03T00:18:06.762Z,80.40
2017-09-03T00:20:33.051Z,80.10
2017-09-03T00:22:59.371Z,79.70
2017-09-03T00:25:25.634Z,80.10
2017-09-03T00:27:51.925Z,81.00
2017-09-03T00:30:18.223Z,81.00
2017-09-03T00:32:44.518Z,81.10
2017-09-03T00:35:10.815Z,81.00
2017-09-03T00:37:37.143Z,81.40
2017-09-03T00:40:03.455Z,80.70
2017-09-03T00:42:29.793Z,80.60
2017-09-03T00:44:56.119Z,80.20
2017-09-03T00:47:22.406Z,80.10
2017-09-03T00:49:48.725Z,80.10
2017-09-03T00:52:15.051Z,81.00
2017-09-03T00:54:41.407Z,80.80
2017-09-03T00:57:07.725Z,81.30
2017-09-03T00:59:34.591Z,81.20
2017-09-03T01:02:00.880Z,81.20
2017-09-03T01:04:27.225Z,80.60
2017-09-03T01:06:53.538Z,80.60
2017-09-03T01:09:19.852Z,80.10
2017-09-03T01:11:46.201Z,80.40
2017-09-03T01:14:12.498Z,80.80
2017-09-03T01:16:38.822Z,81.20
2017-09-03T01:19:05.174Z,81.50
2017-09-03T01:21:31.474Z,81.10
2017-09-03T01:23:57.778Z,81.00
2017-09-03T01:26:24.040Z,80.40
2017-09-03T01:28:50.347Z,80.10
2017-09-03T01:31:16.621Z,79.90
2017-09-03T01:33:42.925Z,80.30
2017-09-03T01:36:09.194Z,80.60
2017-09-03T01:38:35.478Z,80.50
2017-09-03T01:41:01.768Z,80.20
2017-09-03T01:43:28.057Z,79.90
2017-09-03T01:45:54.330Z,79.90
2017-09-03T01:48:20.620Z,80.40
2017-09-03T01:50:46.931Z,81.00
2017-09-03T01:53:13.203Z,81.70
2017-09-03T01:55:39.522Z,82.10
2017-09-03T01:58:05.795Z,81.80
2017-09-03T02:00:32.076Z,81.90
2017-09-03T02:02:58.361Z,82.70
2017-09-03T02:05:24.669Z,82.70
2017-09-03T02:07:50.972Z,82.80
2017-09-03T02:10:17.236Z,82.30
2017-09-03T02:12:43.546Z,82.30
2017-09-03T02:15:09.874Z,82.00
2017-09-03T02:17:36.160Z,81.90
2017-09-03T02:20:02.495Z,81.80
2017-09-03T02:22:28.761Z,81.50
2017-09-03T02:24:55.043Z,81.20
2017-09-03T02:27:21.347Z,82.10
2017-09-03T02:29:47.620Z,82.60
2017-09-03T02:32:14.806Z,82.70
2017-09-03T02:34:41.113Z,82.80
2017-09-03T02:37:07.377Z,83.10
2017-09-03T02:39:33.679Z,83.50
2017-09-03T02:41:59.968Z,83.40
2017-09-03T02:44:26.267Z,83.90
2017-09-03T02:46:52.554Z,83.70
2017-09-03T02:49:18.825Z,83.30
2017-09-03T02:51:45.119Z,83.60
2017-09-03T02:54:11.436Z,83.90
2017-09-03T02:56:37.717Z,83.30
2017-09-03T02:59:03.986Z,83.50
2017-09-03T03:01:30.528Z,82.90
2017-09-03T03:03:56.816Z,83.10
2017-09-03T03:06:23.952Z,82.60
2017-09-03T03:08:50.265Z,82.70
2017-09-03T03:11:16.574Z,82.00
2017-09-03T03:13:42.874Z,82.20
2017-09-03T03:16:09.139Z,81.60
2017-09-03T03:18:36.325Z,81.40
2017-09-03T03:21:02.604Z,82.00
2017-09-03T03:23:28.903Z,81.90
2017-09-03T03:25:55.188Z,82.40
2017-09-03T03:28:21.455Z,81.40
2017-09-03T03:30:47.753Z,80.80
2017-09-03T03:33:14.057Z,80.20
2017-09-03T03:35:40.337Z,80.40
2017-09-03T03:38:06.614Z,80.60
2017-09-03T03:40:32.924Z,81.00
2017-09-03T03:42:59.197Z,80.30
2017-09-03T03:45:25.501Z,80.80
2017-09-03T03:47:51.786Z,80.40
2017-09-03T03:50:18.090Z,80.60
2017-09-03T03:52:44.399Z,80.30
2017-09-03T03:55:10.676Z,80.00
2017-09-03T03:57:36.947Z,79.80
2017-09-03T04:00:03.252Z,79.50
2017-09-03T04:02:29.542Z,79.50
2017-09-03T04:04:55.800Z,79.80
2017-09-03T04:07:22.090Z,80.20
2017-09-03T04:09:48.371Z,80.00
2017-09-03T04:12:14.665Z,79.80
2017-09-03T04:14:40.940Z,80.30
2017-09-03T04:17:07.209Z,80.30
2017-09-03T04:19:33.485Z,80.20
2017-09-03T04:21:59.734Z,79.70
2017-09-03T04:24:26.019Z,79.50
2017-09-03T04:26:52.635Z,79.80
2017-09-03T04:29:18.927Z,79.50
2017-09-03T04:31:45.186Z,79.30
2017-09-03T04:34:11.877Z,79.50
2017-09-03T04:36:38.142Z,79.10
2017-09-03T04:39:04.423Z,79.20
2017-09-03T04:41:30.709Z,79.50
2017-09-03T04:43:56.993Z,79.80
2017-09-03T04:46:23.277Z,79.50
2017-09-03T04:48:49.551Z,79.10
2017-09-03T04:51:15.836Z,79.20
2017-09-03T04:53:42.097Z,79.30
2017-09-03T04:56:08.386Z,79.50
2017-09-03T04:58:34.667Z,79.50
2017-09-03T05:01:00.937Z,79.10
2017-09-03T05:03:27.242Z,78.70
2017-09-03T05:05:53.520Z,78.90
2017-09-03T05:08:19.830Z,79.00
2017-09-03T05:10:46.212Z,79.00
2017-09-03T05:13:12.481Z,79.10
2017-09-03T05:15:38.739Z,78.80
2017-09-03T05:18:05.032Z,79.10
2017-09-03T05:20:31.309Z,79.00
2017-09-03T05:22:57.989Z,79.40
2017-09-03T05:25:24.275Z,79.50
2017-09-03T05:27:50.537Z,79.90
2017-09-03T05:30:16.826Z,79.90
2017-09-03T05:32:43.108Z,80.60
2017-09-03T05:35:09.397Z,80.30
2017-09-03T05:37:35.665Z,80.50
2017-09-03T05:40:01.943Z,80.10
2017-09-03T05:42:28.223Z,79.50
2017-09-03T05:44:54.529Z,79.40
2017-09-03T05:47:20.854Z,79.10
2017-09-03T05:49:47.146Z,78.90
2017-09-03T05:52:13.447Z,79.50
2017-09-03T05:54:39.709Z,79.50
2017-09-03T05:57:06.026Z,79.40
2017-09-03T05:59:32.331Z,79.30
2017-09-03T06:01:58.635Z,78.90
2017-09-03T06:04:24.927Z,78.20
2017-09-03T06:06:51.223Z,78.50
2017-09-03T06:09:17.555Z,78.50
2017-09-03T06:11:43.854Z,78.30
2017-09-03T06:14:10.186Z,78.80
2017-09-03T06:16:36.464Z,78.30
2017-09-03T06:19:02.765Z,78.00
2017-09-03T06:21:29.081Z,76.40
2017-09-03T06:23:55.357Z,75.80
2017-09-03T06:26:21.678Z,76.80
2017-09-03T06:28:47.954Z,76.80
2017-09-03T06:31:14.245Z,76.80
2017-09-03T06:33:40.524Z,76.10
2017-09-03T06:36:06.873Z,75.50
2017-09-03T06:38:33.154Z,74.90
2017-09-03T06:40:59.458Z,75.80
2017-09-03T06:43:25.717Z,76.60
2017-09-03T06:45:52.029Z,75.30
2017-09-03T06:48:18.326Z,73.90
2017-09-03T06:50:44.611Z,74.50
2017-09-03T06:53:10.921Z,72.60
2017-09-03T06:55:37.222Z,72.20
2017-09-03T06:58:03.517Z,72.00
2017-09-03T07:00:29.809Z,72.90
2017-09-03T07:02:56.123Z,71.60
2017-09-03T07:05:22.426Z,70.90
2017-09-03T07:07:48.743Z,72.20
2017-09-03T07:10:15.075Z,71.80
2017-09-03T07:12:41.373Z,70.20
2017-09-03T07:15:07.646Z,70.80
2017-09-03T07:17:33.963Z,70.80
2017-09-03T07:20:00.289Z,71.90
2017-09-03T07:22:26.574Z,71.50
2017-09-03T07:24:52.932Z,71.50
2017-09-03T07:27:19.198Z,69.50
2017-09-03T07:29:45.490Z,70.20
2017-09-03T07:32:11.819Z,70.70
2017-09-03T07:34:38.126Z,69.60
2017-09-03T07:37:04.465Z,71.10
2017-09-03T07:39:30.744Z,70.20
2017-09-03T07:41:57.047Z,69.80
2017-09-03T07:44:23.335Z,69.60
2017-09-03T07:46:49.929Z,69.50
2017-09-03T07:49:16.209Z,68.00
2017-09-03T07:51:42.496Z,69.00
2017-09-03T07:54:08.815Z,70.00
2017-09-03T07:56:35.097Z,68.00
2017-09-03T07:59:01.431Z,67.50
2017-09-03T08:01:27.705Z,68.60
2017-09-03T08:03:54.009Z,70.70
2017-09-03T08:06:20.304Z,68.30
2017-09-03T08:08:46.605Z,66.00
2017-09-03T08:11:12.918Z,67.00
2017-09-03T08:13:40.060Z,68.00
2017-09-03T08:16:06.331Z,69.70
2017-09-03T08:18:32.630Z,69.10
2017-09-03T08:20:58.910Z,68.70
2017-09-03T08:23:25.219Z,66.80
2017-09-03T08:25:51.500Z,67.50
2017-09-03T08:28:17.796Z,66.90
2017-09-03T08:30:44.065Z,65.40
2017-09-03T08:33:10.379Z,68.20
2017-09-03T08:35:36.688Z,65.70
2017-09-03T08:38:02.978Z,65.60
2017-09-03T08:40:29.303Z,66.20
2017-09-03T08:42:55.582Z,66.40
2017-09-03T08:45:21.885Z,66.00
2017-09-03T08:47:48.157Z,64.80
2017-09-03T08:50:14.471Z,66.60
2017-09-03T08:52:40.746Z,66.20
2017-09-03T08:55:07.077Z,65.60
2017-09-03T08:57:33.348Z,63.80
2017-09-03T08:59:59.670Z,64.60
2017-09-03T09:02:25.953Z,63.10
2017-09-03T09:04:52.291Z,63.90
2017-09-03T09:07:18.572Z,64.20
2017-09-03T09:09:45.765Z,67.20
2017-09-03T09:12:12.059Z,65.90
2017-09-03T09:14:38.824Z,63.90
2017-09-03T09:17:05.136Z,62.50
2017-09-03T09:19:31.459Z,63.00
2017-09-03T09:21:57.766Z,61.40
2017-09-03T09:24:24.106Z,63.70
2017-09-03T09:26:51.413Z,64.30
2017-09-03T09:29:17.754Z,62.00
2017-09-03T09:31:44.073Z,63.40
2017-09-03T09:34:10.376Z,64.10
2017-09-03T09:36:36.650Z,66.00
2017-09-03T09:39:03.035Z,65.50
2017-09-03T09:41:30.598Z,67.20
2017-09-03T09:43:56.919Z,64.30
2017-09-03T09:46:23.246Z,64.30
2017-09-03T09:48:49.561Z,65.40
2017-09-03T09:51:15.914Z,63.70
2017-09-03T09:53:42.241Z,64.20
2017-09-03T09:56:08.627Z,63.10
2017-09-03T09:58:34.939Z,64.30
2017-09-03T10:01:01.214Z,64.00
2017-09-03T10:03:27.514Z,64.00
2017-09-03T10:05:53.801Z,62.80
2017-09-03T10:08:20.082Z,62.70
2017-09-03T10:10:46.438Z,63.00
2017-09-03T10:13:12.731Z,61.10
2017-09-03T10:15:39.035Z,61.10
2017-09-03T10:18:05.330Z,60.40
2017-09-03T10:20:31.702Z,60.20
2017-09-03T10:22:57.967Z,59.30
2017-09-03T10:25:24.252Z,59.40
2017-09-03T10:27:50.538Z,60.20
2017-09-03T10:30:16.878Z,59.00
2017-09-03T10:32:43.480Z,59.50
2017-09-03T10:35:09.853Z,60.70
2017-09-03T10:37:36.215Z,63.20
2017-09-03T10:40:02.601Z,64.10
2017-09-03T10:42:28.899Z,65.50
2017-09-03T10:44:55.201Z,63.90
2017-09-03T10:47:21.502Z,63.30
2017-09-03T10:49:47.852Z,63.00
2017-09-03T10:52:14.230Z,63.70
2017-09-03T10:54:40.540Z,66.70
2017-09-03T10:57:06.835Z,63.90
2017-09-03T10:59:33.115Z,62.50
2017-09-03T11:01:59.416Z,65.10
2017-09-03T11:04:25.681Z,63.60
2017-09-03T11:06:52.001Z,65.00
2017-09-03T11:09:18.318Z,59.50
2017-09-03T11:11:44.594Z,60.50
2017-09-03T11:14:10.905Z,61.30
2017-09-03T11:16:37.233Z,57.90
2017-09-03T11:19:03.514Z,55.80
2017-09-03T11:21:29.823Z,55.60
2017-09-03T11:23:56.123Z,51.10
2017-09-03T11:26:22.443Z,48.80
2017-09-03T11:28:48.767Z,47.00
2017-09-03T11:31:15.058Z,45.50
2017-09-03T11:33:41.352Z,47.80
2017-09-03T11:36:08.510Z,51.10
2017-09-03T11:38:34.800Z,52.10
2017-09-03T11:41:01.114Z,55.10
2017-09-03T11:43:27.417Z,53.40
2017-09-03T11:45:54.684Z,52.40
2017-09-03T11:48:21.149Z,55.50
2017-09-03T11:50:47.460Z,57.30
2017-09-03T11:53:13.764Z,57.00
2017-09-03T11:55:40.095Z,57.50
2017-09-03T11:58:06.391Z,60.30
2017-09-03T12:00:32.705Z,58.70
2017-09-03T12:02:59.047Z,60.10
2017-09-03T12:05:25.369Z,59.50
2017-09-03T12:07:51.670Z,60.50
2017-09-03T12:10:17.996Z,61.80
2017-09-03T12:12:44.327Z,61.30
2017-09-03T12:15:10.642Z,60.40
2017-09-03T12:17:36.959Z,56.70
2017-09-03T12:20:03.305Z,58.90
2017-09-03T12:22:29.623Z,61.20
2017-09-03T12:24:56.553Z,62.00
2017-09-03T12:27:22.867Z,64.20
2017-09-03T12:29:49.664Z,65.10
2017-09-03T12:32:16.375Z,63.50
2017-09-03T12:34:42.681Z,64.00
2017-09-03T12:37:09.013Z,64.40
2017-09-03T12:39:35.323Z,63.30
2017-09-03T12:42:01.645Z,62.20
2017-09-03T12:44:27.942Z,61.90
2017-09-03T12:46:54.260Z,61.40
2017-09-03T12:49:20.553Z,60.50
2017-09-03T12:51:46.890Z,61.30
2017-09-03T12:54:13.200Z,61.70
2017-09-03T12:56:39.488Z,61.00
2017-09-03T12:59:05.786Z,60.80
2017-09-03T13:01:32.159Z,61.70
2017-09-03T13:03:58.445Z,60.30
2017-09-03T13:06:24.779Z,57.90
2017-09-03T13:08:51.098Z,56.70
2017-09-03T13:11:17.405Z,56.90
2017-09-03T13:13:43.763Z,56.60
2017-09-03T13:16:10.081Z,55.30
2017-09-03T13:18:36.435Z,53.90
2017-09-03T13:21:02.727Z,54.00
2017-09-03T13:23:29.059Z,46.50
2017-09-03T13:25:55.362Z,36.40
2017-09-03T13:28:21.671Z,31.20
2017-09-03T13:30:47.969Z,27.50
2017-09-03T13:33:14.295Z,23.20
2017-09-03T13:35:40.589Z,21.40
2017-09-03T13:38:06.921Z,18.50
2017-09-03T13:40:33.206Z,17.40
2017-09-03T13:42:59.874Z,16.20
2017-09-03T13:45:26.175Z,17.40
2017-09-03T13:47:52.492Z,17.70
2017-09-03T13:50:18.792Z,20.00
2017-09-03T13:52:45.112Z,20.40
2017-09-03T13:55:11.424Z,19.90
2017-09-03T13:57:37.739Z,21.90
2017-09-03T14:00:04.027Z,21.10
2017-09-03T14:02:31.165Z,20.90
2017-09-03T14:04:57.458Z,22.10
2017-09-03T14:07:23.793Z,25.40
2017-09-03T14:09:50.091Z,23.60
2017-09-03T14:12:17.329Z,22.90
2017-09-03T14:14:44.596Z,19.80
2017-09-03T14:17:10.923Z,19.90
2017-09-03T14:19:37.247Z,19.80
2017-09-03T14:22:03.541Z,18.50
2017-09-03T14:24:29.849Z,20.40
2017-09-03T14:26:56.134Z,20.40
2017-09-03T14:29:22.437Z,23.80
2017-09-03T14:31:48.735Z,25.20
2017-09-03T14:34:15.067Z,24.40
2017-09-03T14:36:41.354Z,23.20
2017-09-03T14:39:07.643Z,24.10
2017-09-03T14:41:33.921Z,23.60
2017-09-03T14:44:00.221Z,22.60
2017-09-03T14:46:26.523Z,23.00
2017-09-03T14:48:52.810Z,22.40
2017-09-03T14:51:19.114Z,21.30
2017-09-03T14:53:45.430Z,23.50
2017-09-03T14:56:11.701Z,25.40
2017-09-03T14:58:37.989Z,23.30
2017-09-03T15:01:04.270Z,22.30
2017-09-03T15:03:30.588Z,22.80
2017-09-03T15:05:56.911Z,21.10
2017-09-03T15:08:23.198Z,24.30
2017-09-03T15:10:49.529Z,26.90
2017-09-03T15:13:15.815Z,30.60
2017-09-03T15:15:42.173Z,32.60
2017-09-03T15:18:08.457Z,35.10
2017-09-03T15:20:34.761Z,35.80
2017-09-03T15:23:01.068Z,33.30
2017-09-03T15:25:27.391Z,31.60
2017-09-03T15:27:53.683Z,28.70
2017-09-03T15:30:20.026Z,27.30
2017-09-03T15:32:46.333Z,26.20
2017-09-03T15:35:13.101Z,29.70
2017-09-03T15:37:39.402Z,30.20
2017-09-03T15:40:05.697Z,31.70
2017-09-03T15:42:32.011Z,34.40
2017-09-03T15:44:58.310Z,35.80
2017-09-03T15:47:24.686Z,37.70
2017-09-03T15:49:50.968Z,40.40
2017-09-03T15:52:17.294Z,42.50
2017-09-03T15:54:43.617Z,44.20
2017-09-03T15:57:09.923Z,46.20
2017-09-03T15:59:36.235Z,47.80
2017-09-03T16:02:02.606Z,49.00
2017-09-03T16:04:28.903Z,49.80
2017-09-03T16:06:55.211Z,50.90
2017-09-03T16:09:21.543Z,51.40
2017-09-03T16:11:47.832Z,52.30
2017-09-03T16:14:14.130Z,52.90
2017-09-03T16:16:40.462Z,53.10
2017-09-03T16:19:07.582Z,53.00
2017-09-03T16:21:33.854Z,54.70
2017-09-03T16:24:00.137Z,55.50
2017-09-03T16:26:26.427Z,57.20
2017-09-03T16:28:52.728Z,58.40
2017-09-03T16:31:19.032Z,59.60
2017-09-03T16:33:45.334Z,60.60
2017-09-03T16:36:11.713Z,60.70
2017-09-03T16:38:38.331Z,60.70
2017-09-03T16:41:04.652Z,60.90
2017-09-03T16:43:31.013Z,61.40
2017-09-03T16:45:57.296Z,61.80
2017-09-03T16:48:23.600Z,61.80
2017-09-03T16:50:49.937Z,62.90
2017-09-03T16:53:16.257Z,63.60
2017-09-03T16:55:42.591Z,63.40
2017-09-03T16:58:08.916Z,63.70
2017-09-03T17:00:35.272Z,64.60
2017-09-03T17:03:01.892Z,65.10
2017-09-03T17:05:28.264Z,65.70
2017-09-03T17:07:54.602Z,65.90
2017-09-03T17:10:20.910Z,65.40
2017-09-03T17:12:47.261Z,65.30
2017-09-03T17:15:13.594Z,66.10
2017-09-03T17:17:39.944Z,66.40
2017-09-03T17:20:06.382Z,66.70
2017-09-03T17:22:32.715Z,66.60
2017-09-03T17:24:59.032Z,66.70
2017-09-03T17:27:25.382Z,67.40
2017-09-03T17:29:52.652Z,66.90
2017-09-03T17:32:19.012Z,67.20
2017-09-03T17:34:45.359Z,67.50
2017-09-03T17:37:12.591Z,67.90
2017-09-03T17:39:39.794Z,68.80
2017-09-03T17:42:09.157Z,69.20
2017-09-03T17:44:35.503Z,69.50
2017-09-03T17:47:01.918Z,69.90
2017-09-03T17:49:28.253Z,70.50
2017-09-03T17:51:54.632Z,70.70
2017-09-03T17:54:20.967Z,71.00
2017-09-03T17:56:47.310Z,71.10
2017-09-03T17:59:13.655Z,71.30
2017-09-03T18:01:40.029Z,71.80
2017-09-03T18:04:06.963Z,72.40
2017-09-03T18:06:33.371Z,72.60
2017-09-03T18:08:59.685Z,72.80
2017-09-03T18:11:26.004Z,72.90
2017-09-03T18:13:52.332Z,73.20
2017-09-03T18:16:18.766Z,73.20
2017-09-03T18:18:45.145Z,73.30
2017-09-03T18:21:11.487Z,72.80
2017-09-03T18:23:37.843Z,72.60
2017-09-03T18:26:04.182Z,73.10
2017-09-03T18:28:30.535Z,73.40
2017-09-03T18:30:58.659Z,73.70
2017-09-03T18:33:25.083Z,74.20
2017-09-03T18:35:51.462Z,74.70
2017-09-03T18:38:20.703Z,75.30
2017-09-03T18:40:49.292Z,75.30
2017-09-03T18:43:17.435Z,75.40
2017-09-03T18:45:43.781Z,75.90
2017-09-03T18:48:10.102Z,75.70
2017-09-03T18:50:37.877Z,75.90
2017-09-03T18:53:04.218Z,75.70
2017-09-03T18:55:32.309Z,75.70
2017-09-03T18:58:00.210Z,75.50
2017-09-03T19:00:28.318Z,76.40
2017-09-03T19:02:56.857Z,76.30
2017-09-03T19:18:40.005Z,76.60
2017-09-03T19:21:06.318Z,76.30
2017-09-03T19:23:32.686Z,76.40
2017-09-03T19:25:59.001Z,76.70
2017-09-03T19:28:25.350Z,77.20
2017-09-03T19:30:51.692Z,78.00
2017-09-03T19:33:18.030Z,78.00
2017-09-03T19:35:45.218Z,77.90
2017-09-03T19:38:13.488Z,77.40
2017-09-03T19:40:39.845Z,77.50
2017-09-03T19:43:06.177Z,77.30
2017-09-03T19:45:32.504Z,77.00
2017-09-03T19:47:58.875Z,76.70
2017-09-03T19:50:25.195Z,76.60
2017-09-03T19:52:51.512Z,76.50
2017-09-03T19:55:17.790Z,77.20
2017-09-03T19:57:44.134Z,77.30
2017-09-03T20:00:10.453Z,77.70
2017-09-03T20:02:36.774Z,78.20
2017-09-03T20:05:03.094Z,77.70
2017-09-03T20:07:30.166Z,77.70
2017-09-03T20:09:56.495Z,77.50
2017-09-03T20:12:22.824Z,77.20
2017-09-03T20:14:49.126Z,77.40
2017-09-03T20:17:15.434Z,77.70
2017-09-03T20:19:41.779Z,78.00
2017-09-03T20:22:08.073Z,78.40
2017-09-03T20:24:34.381Z,78.40
2017-09-03T20:27:01.276Z,78.30
2017-09-03T20:29:27.564Z,78.70
2017-09-03T20:31:54.140Z,78.60
2017-09-03T20:34:20.401Z,78.20
2017-09-03T20:36:46.710Z,77.70
2017-09-03T20:39:13.046Z,78.00
2017-09-03T20:41:39.429Z,78.20
2017-09-03T20:44:05.710Z,78.70
2017-09-03T20:46:32.912Z,78.30
2017-09-03T20:48:59.220Z,80.00
2017-09-03T20:51:25.757Z,80.60
2017-09-03T20:53:52.042Z,80.30
2017-09-03T20:56:18.329Z,79.50
2017-09-03T20:58:44.664Z,79.00
2017-09-03T21:01:10.935Z,78.90
2017-09-03T21:03:37.252Z,79.70
2017-09-03T21:06:03.554Z,80.40
2017-09-03T21:08:29.886Z,79.90
2017-09-03T21:10:56.145Z,79.50
2017-09-03T21:13:22.443Z,79.30
2017-09-03T21:15:48.725Z,79.10
2017-09-03T21:18:15.036Z,78.60
2017-09-03T21:20:41.344Z,78.50
2017-09-03T21:23:07.611Z,78.50
2017-09-03T21:25:33.925Z,78.70
2017-09-03T21:28:00.215Z,78.80
2017-09-03T21:30:26.542Z,78.60
2017-09-03T21:32:52.866Z,78.70
2017-09-03T21:35:19.186Z,78.90
2017-09-03T21:37:45.478Z,78.70
2017-09-03T21:40:11.787Z,78.40
2017-09-03T21:42:38.106Z,78.50
2017-09-03T21:45:04.404Z,80.80
2017-09-03T21:47:30.711Z,80.50
2017-09-03T21:49:57.008Z,80.00
2017-09-03T21:52:23.306Z,80.00
2017-09-03T21:54:49.575Z,80.20
2017-09-03T21:57:15.880Z,81.50
2017-09-03T21:59:42.146Z,81.50
2017-09-03T22:02:08.685Z,81.80
2017-09-03T22:04:34.983Z,82.60
2017-09-03T22:07:01.265Z,82.10
2017-09-03T22:09:27.548Z,81.10
2017-09-03T22:11:54.397Z,80.30
2017-09-03T22:14:20.716Z,81.30
2017-09-03T22:16:46.989Z,81.20
2017-09-03T22:19:13.298Z,81.00
2017-09-03T22:21:39.635Z,81.60
2017-09-03T22:24:05.974Z,81.80
2017-09-03T22:26:32.233Z,81.70
2017-09-03T22:28:58.553Z,81.50
2017-09-03T22:31:24.864Z,81.10
2017-09-03T22:33:51.116Z,80.90
2017-09-03T22:36:17.413Z,81.00
2017-09-03T22:38:43.704Z,80.60
2017-09-03T22:41:10.007Z,80.50
2017-09-03T22:43:36.295Z,80.10
2017-09-03T22:46:02.627Z,79.80
2017-09-03T22:48:28.909Z,79.70
2017-09-03T22:50:55.692Z,80.00
2017-09-03T22:53:21.977Z,79.70
2017-09-03T22:55:48.259Z,79.60
2017-09-03T22:58:14.556Z,79.30
2017-09-03T23:00:40.827Z,79.70
2017-09-03T23:03:07.117Z,79.60
2017-09-03T23:05:33.437Z,79.10
2017-09-03T23:07:59.747Z,79.00
2017-09-03T23:10:26.014Z,78.60
2017-09-03T23:12:52.303Z,79.10
2017-09-03T23:15:18.593Z,79.10
2017-09-03T23:17:44.879Z,78.50
2017-09-03T23:20:11.209Z,78.10
2017-09-03T23:22:37.527Z,77.80
2017-09-03T23:25:03.810Z,78.60
2017-09-03T23:27:30.112Z,78.80
2017-09-03T23:29:56.877Z,79.10
2017-09-03T23:32:23.150Z,79.10
2017-09-03T23:34:49.424Z,79.10
2017-09-03T23:37:15.706Z,79.20
2017-09-03T23:39:42.006Z,79.40
2017-09-03T23:42:08.307Z,79.70
2017-09-03T23:44:35.582Z,79.50
2017-09-03T23:47:01.878Z,79.90
2017-09-03T23:49:28.181Z,79.70
2017-09-03T23:51:54.646Z,79.30
2017-09-03T23:54:20.909Z,79.10
2017-09-03T23:56:47.638Z,78.90
2017-09-03T23:59:13.916Z,79.20
